sensor_id;sensor_type;location;lat;lon;timestamp;P1;durP1;ratioP1;P2;durP2;ratioP2
25780;SDS011;13626;48.128;11.628;2023-12-28T00:02:14;5.63;;;2.65;;
25780;SDS011;13626;48.128;11.628;2023-12-28T00:04:42;4.30;;;2.67;;
25780;SDS011;13626;48.128;11.628;2023-12-28T00:07:09;4.53;;;2.50;;
25780;SDS011;13626;48.128;11.628;2023-12-28T00:09:37;4.90;;;2.47;;
25780;SDS011;13626;48.128;11.628;2023-12-28T00:12:04;5.82;;;2.85;;
25780;SDS011;13626;48.128;11.628;2023-12-28T00:14:31;6.93;;;3.63;;
25780;SDS011;13626;48.128;11.628;2023-12-28T00:17:00;6.15;;;3.20;;
25780;SDS011;13626;48.128;11.628;2023-12-28T00:19:27;7.13;;;3.17;;
25780;SDS011;13626;48.128;11.628;2023-12-28T00:21:55;7.32;;;3.40;;
25780;SDS011;13626;48.128;11.628;2023-12-28T00:24:22;6.57;;;3.40;;
25780;SDS011;13626;48.128;11.628;2023-12-28T00:26:50;8.88;;;3.58;;
25780;SDS011;13626;48.128;11.628;2023-12-28T00:29:18;7.45;;;3.97;;
25780;SDS011;13626;48.128;11.628;2023-12-28T00:31:45;8.48;;;3.83;;
25780;SDS011;13626;48.128;11.628;2023-12-28T00:34:12;8.00;;;3.75;;
25780;SDS011;13626;48.128;11.628;2023-12-28T00:36:39;7.80;;;4.18;;
25780;SDS011;13626;48.128;11.628;2023-12-28T00:39:07;7.55;;;3.88;;
25780;SDS011;13626;48.128;11.628;2023-12-28T00:41:35;9.20;;;4.38;;
25780;SDS011;13626;48.128;11.628;2023-12-28T00:44:02;7.13;;;3.70;;
25780;SDS011;13626;48.128;11.628;2023-12-28T00:46:32;7.60;;;3.83;;
25780;SDS011;13626;48.128;11.628;2023-12-28T00:48:59;6.97;;;3.38;;
25780;SDS011;13626;48.128;11.628;2023-12-28T00:51:26;8.27;;;3.67;;
25780;SDS011;13626;48.128;11.628;2023-12-28T00:53:54;9.80;;;4.03;;
25780;SDS011;13626;48.128;11.628;2023-12-28T00:56:21;9.52;;;3.88;;
25780;SDS011;13626;48.128;11.628;2023-12-28T00:58:48;7.32;;;3.58;;
25780;SDS011;13626;48.128;11.628;2023-12-28T01:01:16;7.15;;;3.80;;
25780;SDS011;13626;48.128;11.628;2023-12-28T01:03:43;6.43;;;3.30;;
25780;SDS011;13626;48.128;11.628;2023-12-28T01:06:11;7.15;;;3.60;;
25780;SDS011;13626;48.128;11.628;2023-12-28T01:08:38;6.32;;;3.28;;
25780;SDS011;13626;48.128;11.628;2023-12-28T01:11:06;7.60;;;3.53;;
25780;SDS011;13626;48.128;11.628;2023-12-28T01:13:33;7.43;;;3.88;;
25780;SDS011;13626;48.128;11.628;2023-12-28T01:16:02;5.97;;;3.17;;
25780;SDS011;13626;48.128;11.628;2023-12-28T01:18:30;5.25;;;2.60;;
25780;SDS011;13626;48.128;11.628;2023-12-28T01:20:58;5.20;;;2.53;;
25780;SDS011;13626;48.128;11.628;2023-12-28T01:23:25;6.43;;;3.25;;
25780;SDS011;13626;48.128;11.628;2023-12-28T01:25:54;6.50;;;3.20;;
25780;SDS011;13626;48.128;11.628;2023-12-28T01:28:23;3.50;;;2.42;;
25780;SDS011;13626;48.128;11.628;2023-12-28T01:30:50;4.75;;;2.75;;
25780;SDS011;13626;48.128;11.628;2023-12-28T01:33:17;4.10;;;2.30;;
25780;SDS011;13626;48.128;11.628;2023-12-28T01:35:45;4.55;;;2.10;;
25780;SDS011;13626;48.128;11.628;2023-12-28T01:38:12;5.15;;;2.92;;
25780;SDS011;13626;48.128;11.628;2023-12-28T01:40:43;4.78;;;2.58;;
25780;SDS011;13626;48.128;11.628;2023-12-28T01:43:11;4.55;;;2.80;;
25780;SDS011;13626;48.128;11.628;2023-12-28T01:45:38;3.85;;;2.30;;
25780;SDS011;13626;48.128;11.628;2023-12-28T01:48:06;3.85;;;2.03;;
25780;SDS011;13626;48.128;11.628;2023-12-28T01:50:33;5.82;;;2.92;;
25780;SDS011;13626;48.128;11.628;2023-12-28T01:53:01;4.18;;;2.33;;
25780;SDS011;13626;48.128;11.628;2023-12-28T01:55:29;4.72;;;2.40;;
25780;SDS011;13626;48.128;11.628;2023-12-28T01:57:57;5.22;;;2.60;;
25780;SDS011;13626;48.128;11.628;2023-12-28T02:00:25;5.97;;;2.53;;
25780;SDS011;13626;48.128;11.628;2023-12-28T02:02:53;3.58;;;2.25;;
25780;SDS011;13626;48.128;11.628;2023-12-28T02:05:20;5.40;;;2.72;;
25780;SDS011;13626;48.128;11.628;2023-12-28T02:07:48;3.33;;;2.47;;
25780;SDS011;13626;48.128;11.628;2023-12-28T02:10:15;5.38;;;2.65;;
25780;SDS011;13626;48.128;11.628;2023-12-28T02:12:42;6.25;;;2.58;;
25780;SDS011;13626;48.128;11.628;2023-12-28T02:15:10;5.45;;;2.50;;
25780;SDS011;13626;48.128;11.628;2023-12-28T02:17:49;3.90;;;2.22;;
25780;SDS011;13626;48.128;11.628;2023-12-28T02:20:18;5.10;;;2.85;;
25780;SDS011;13626;48.128;11.628;2023-12-28T02:22:46;3.92;;;2.45;;
25780;SDS011;13626;48.128;11.628;2023-12-28T02:25:14;4.75;;;2.83;;
25780;SDS011;13626;48.128;11.628;2023-12-28T02:27:45;4.82;;;2.88;;
25780;SDS011;13626;48.128;11.628;2023-12-28T02:30:17;7.65;;;2.83;;
25780;SDS011;13626;48.128;11.628;2023-12-28T02:38:02;4.78;;;2.72;;
25780;SDS011;13626;48.128;11.628;2023-12-28T02:40:31;4.68;;;2.20;;
25780;SDS011;13626;48.128;11.628;2023-12-28T02:43:01;4.57;;;2.25;;
25780;SDS011;13626;48.128;11.628;2023-12-28T02:45:28;3.22;;;2.17;;
25780;SDS011;13626;48.128;11.628;2023-12-28T02:47:56;3.80;;;2.05;;
25780;SDS011;13626;48.128;11.628;2023-12-28T02:50:24;5.05;;;2.13;;
25780;SDS011;13626;48.128;11.628;2023-12-28T02:52:51;5.72;;;1.88;;
25780;SDS011;13626;48.128;11.628;2023-12-28T02:55:18;3.35;;;1.90;;
25780;SDS011;13626;48.128;11.628;2023-12-28T02:57:45;3.05;;;1.90;;
25780;SDS011;13626;48.128;11.628;2023-12-28T03:00:13;3.38;;;2.10;;
25780;SDS011;13626;48.128;11.628;2023-12-28T03:02:40;3.50;;;2.08;;
25780;SDS011;13626;48.128;11.628;2023-12-28T03:05:08;4.60;;;2.20;;
25780;SDS011;13626;48.128;11.628;2023-12-28T03:07:35;2.85;;;2.22;;
25780;SDS011;13626;48.128;11.628;2023-12-28T03:10:03;3.33;;;2.00;;
25780;SDS011;13626;48.128;11.628;2023-12-28T03:12:30;5.72;;;2.30;;
25780;SDS011;13626;48.128;11.628;2023-12-28T03:14:58;2.63;;;1.70;;
25780;SDS011;13626;48.128;11.628;2023-12-28T03:17:25;3.83;;;2.10;;
25780;SDS011;13626;48.128;11.628;2023-12-28T03:19:52;3.53;;;2.20;;
25780;SDS011;13626;48.128;11.628;2023-12-28T03:22:20;4.75;;;2.22;;
25780;SDS011;13626;48.128;11.628;2023-12-28T03:24:47;2.80;;;2.00;;
25780;SDS011;13626;48.128;11.628;2023-12-28T03:27:15;2.72;;;1.95;;
25780;SDS011;13626;48.128;11.628;2023-12-28T03:29:42;2.55;;;1.70;;
25780;SDS011;13626;48.128;11.628;2023-12-28T03:32:09;3.35;;;1.75;;
25780;SDS011;13626;48.128;11.628;2023-12-28T03:34:37;3.42;;;2.10;;
25780;SDS011;13626;48.128;11.628;2023-12-28T03:37:04;2.30;;;1.60;;
25780;SDS011;13626;48.128;11.628;2023-12-28T03:39:32;2.15;;;1.77;;
25780;SDS011;13626;48.128;11.628;2023-12-28T03:42:00;3.50;;;2.13;;
25780;SDS011;13626;48.128;11.628;2023-12-28T03:44:27;3.97;;;2.05;;
25780;SDS011;13626;48.128;11.628;2023-12-28T03:46:55;2.35;;;1.73;;
25780;SDS011;13626;48.128;11.628;2023-12-28T03:49:23;2.53;;;1.55;;
25780;SDS011;13626;48.128;11.628;2023-12-28T03:51:50;1.90;;;1.58;;
25780;SDS011;13626;48.128;11.628;2023-12-28T03:54:18;3.05;;;2.08;;
25780;SDS011;13626;48.128;11.628;2023-12-28T03:56:46;2.53;;;1.60;;
25780;SDS011;13626;48.128;11.628;2023-12-28T03:59:13;2.78;;;1.75;;
25780;SDS011;13626;48.128;11.628;2023-12-28T04:01:44;2.05;;;1.52;;
25780;SDS011;13626;48.128;11.628;2023-12-28T04:04:12;2.35;;;1.48;;
25780;SDS011;13626;48.128;11.628;2023-12-28T04:06:39;1.88;;;1.30;;
25780;SDS011;13626;48.128;11.628;2023-12-28T04:09:08;2.10;;;1.17;;
25780;SDS011;13626;48.128;11.628;2023-12-28T04:11:38;2.00;;;1.38;;
25780;SDS011;13626;48.128;11.628;2023-12-28T04:14:05;2.40;;;0.95;;
25780;SDS011;13626;48.128;11.628;2023-12-28T04:16:33;1.77;;;1.20;;
25780;SDS011;13626;48.128;11.628;2023-12-28T04:19:00;2.20;;;1.17;;
25780;SDS011;13626;48.128;11.628;2023-12-28T04:21:28;1.70;;;1.27;;
25780;SDS011;13626;48.128;11.628;2023-12-28T04:23:56;1.38;;;1.05;;
25780;SDS011;13626;48.128;11.628;2023-12-28T04:26:23;2.28;;;1.50;;
25780;SDS011;13626;48.128;11.628;2023-12-28T04:28:51;2.92;;;1.48;;
25780;SDS011;13626;48.128;11.628;2023-12-28T04:31:18;3.63;;;1.30;;
25780;SDS011;13626;48.128;11.628;2023-12-28T04:33:46;2.05;;;1.50;;
25780;SDS011;13626;48.128;11.628;2023-12-28T04:36:13;2.33;;;1.10;;
25780;SDS011;13626;48.128;11.628;2023-12-28T04:38:41;2.08;;;1.67;;
25780;SDS011;13626;48.128;11.628;2023-12-28T04:41:09;1.65;;;1.20;;
25780;SDS011;13626;48.128;11.628;2023-12-28T04:43:38;1.92;;;1.27;;
25780;SDS011;13626;48.128;11.628;2023-12-28T04:46:05;2.28;;;1.23;;
25780;SDS011;13626;48.128;11.628;2023-12-28T04:48:32;2.75;;;1.02;;
25780;SDS011;13626;48.128;11.628;2023-12-28T04:51:04;1.90;;;1.10;;
25780;SDS011;13626;48.128;11.628;2023-12-28T04:53:31;1.38;;;1.10;;
25780;SDS011;13626;48.128;11.628;2023-12-28T04:56:00;2.13;;;1.08;;
25780;SDS011;13626;48.128;11.628;2023-12-28T04:58:27;1.58;;;1.13;;
25780;SDS011;13626;48.128;11.628;2023-12-28T05:00:54;2.38;;;1.27;;
25780;SDS011;13626;48.128;11.628;2023-12-28T05:03:22;1.95;;;1.10;;
25780;SDS011;13626;48.128;11.628;2023-12-28T05:05:50;1.00;;;0.90;;
25780;SDS011;13626;48.128;11.628;2023-12-28T05:08:17;2.05;;;1.20;;
25780;SDS011;13626;48.128;11.628;2023-12-28T05:10:44;1.77;;;1.13;;
25780;SDS011;13626;48.128;11.628;2023-12-28T05:13:11;2.53;;;1.10;;
25780;SDS011;13626;48.128;11.628;2023-12-28T05:15:39;1.17;;;1.08;;
25780;SDS011;13626;48.128;11.628;2023-12-28T05:18:06;1.88;;;0.90;;
25780;SDS011;13626;48.128;11.628;2023-12-28T05:20:35;1.52;;;1.05;;
25780;SDS011;13626;48.128;11.628;2023-12-28T05:23:02;0.98;;;0.85;;
25780;SDS011;13626;48.128;11.628;2023-12-28T05:25:30;1.55;;;0.90;;
25780;SDS011;13626;48.128;11.628;2023-12-28T05:27:57;1.88;;;1.13;;
25780;SDS011;13626;48.128;11.628;2023-12-28T05:30:24;2.38;;;1.10;;
25780;SDS011;13626;48.128;11.628;2023-12-28T05:32:52;1.30;;;0.95;;
25780;SDS011;13626;48.128;11.628;2023-12-28T05:35:19;1.73;;;1.00;;
25780;SDS011;13626;48.128;11.628;2023-12-28T05:37:47;2.25;;;1.48;;
25780;SDS011;13626;48.128;11.628;2023-12-28T05:40:14;1.92;;;1.20;;
25780;SDS011;13626;48.128;11.628;2023-12-28T05:42:41;1.10;;;1.00;;
25780;SDS011;13626;48.128;11.628;2023-12-28T05:45:09;2.20;;;1.08;;
25780;SDS011;13626;48.128;11.628;2023-12-28T05:47:36;1.17;;;0.90;;
25780;SDS011;13626;48.128;11.628;2023-12-28T05:50:04;2.90;;;2.03;;
25780;SDS011;13626;48.128;11.628;2023-12-28T05:52:32;3.03;;;0.88;;
25780;SDS011;13626;48.128;11.628;2023-12-28T05:55:00;1.55;;;1.00;;
25780;SDS011;13626;48.128;11.628;2023-12-28T05:57:27;2.35;;;1.20;;
25780;SDS011;13626;48.128;11.628;2023-12-28T05:59:57;1.33;;;0.82;;
25780;SDS011;13626;48.128;11.628;2023-12-28T06:02:24;3.28;;;1.15;;
25780;SDS011;13626;48.128;11.628;2023-12-28T06:04:51;1.80;;;1.00;;
25780;SDS011;13626;48.128;11.628;2023-12-28T06:07:19;1.80;;;1.17;;
25780;SDS011;13626;48.128;11.628;2023-12-28T06:09:46;1.27;;;1.02;;
25780;SDS011;13626;48.128;11.628;2023-12-28T06:12:14;2.33;;;1.00;;
25780;SDS011;13626;48.128;11.628;2023-12-28T06:14:42;2.47;;;0.90;;
25780;SDS011;13626;48.128;11.628;2023-12-28T06:17:10;2.95;;;1.23;;
25780;SDS011;13626;48.128;11.628;2023-12-28T06:19:37;1.23;;;0.80;;
25780;SDS011;13626;48.128;11.628;2023-12-28T06:22:05;2.20;;;0.98;;
25780;SDS011;13626;48.128;11.628;2023-12-28T06:24:32;1.35;;;0.90;;
25780;SDS011;13626;48.128;11.628;2023-12-28T06:27:00;1.55;;;1.08;;
25780;SDS011;13626;48.128;11.628;2023-12-28T06:29:27;1.55;;;0.85;;
25780;SDS011;13626;48.128;11.628;2023-12-28T06:31:55;1.70;;;1.00;;
25780;SDS011;13626;48.128;11.628;2023-12-28T06:34:22;2.70;;;1.10;;
25780;SDS011;13626;48.128;11.628;2023-12-28T06:36:49;1.30;;;1.10;;
25780;SDS011;13626;48.128;11.628;2023-12-28T06:39:17;2.13;;;0.95;;
25780;SDS011;13626;48.128;11.628;2023-12-28T06:41:48;1.92;;;1.40;;
25780;SDS011;13626;48.128;11.628;2023-12-28T06:44:16;2.67;;;1.35;;
25780;SDS011;13626;48.128;11.628;2023-12-28T06:46:43;3.33;;;1.10;;
25780;SDS011;13626;48.128;11.628;2023-12-28T06:49:10;2.90;;;1.40;;
25780;SDS011;13626;48.128;11.628;2023-12-28T06:51:38;3.30;;;1.30;;
25780;SDS011;13626;48.128;11.628;2023-12-28T06:54:05;2.65;;;1.30;;
25780;SDS011;13626;48.128;11.628;2023-12-28T06:56:33;2.08;;;1.08;;
25780;SDS011;13626;48.128;11.628;2023-12-28T06:59:00;3.58;;;1.38;;
25780;SDS011;13626;48.128;11.628;2023-12-28T07:01:27;2.17;;;1.17;;
25780;SDS011;13626;48.128;11.628;2023-12-28T07:03:55;3.92;;;1.77;;
25780;SDS011;13626;48.128;11.628;2023-12-28T07:06:22;2.83;;;1.30;;
25780;SDS011;13626;48.128;11.628;2023-12-28T07:08:49;2.50;;;1.00;;
25780;SDS011;13626;48.128;11.628;2023-12-28T07:11:17;1.85;;;1.23;;
25780;SDS011;13626;48.128;11.628;2023-12-28T07:13:44;2.35;;;1.40;;
25780;SDS011;13626;48.128;11.628;2023-12-28T07:16:12;2.40;;;1.20;;
25780;SDS011;13626;48.128;11.628;2023-12-28T07:18:39;1.33;;;0.93;;
25780;SDS011;13626;48.128;11.628;2023-12-28T07:21:07;4.32;;;1.30;;
25780;SDS011;13626;48.128;11.628;2023-12-28T07:23:37;2.05;;;1.30;;
25780;SDS011;13626;48.128;11.628;2023-12-28T07:26:05;1.88;;;1.10;;
25780;SDS011;13626;48.128;11.628;2023-12-28T07:28:32;2.55;;;1.20;;
25780;SDS011;13626;48.128;11.628;2023-12-28T07:31:00;1.23;;;0.90;;
25780;SDS011;13626;48.128;11.628;2023-12-28T07:33:27;1.63;;;1.30;;
25780;SDS011;13626;48.128;11.628;2023-12-28T07:35:55;4.10;;;1.40;;
25780;SDS011;13626;48.128;11.628;2023-12-28T07:38:25;2.28;;;1.52;;
25780;SDS011;13626;48.128;11.628;2023-12-28T07:40:52;3.70;;;1.30;;
25780;SDS011;13626;48.128;11.628;2023-12-28T07:43:19;3.40;;;1.65;;
25780;SDS011;13626;48.128;11.628;2023-12-28T07:45:47;2.38;;;1.23;;
25780;SDS011;13626;48.128;11.628;2023-12-28T07:48:14;2.53;;;1.38;;
25780;SDS011;13626;48.128;11.628;2023-12-28T07:50:51;1.92;;;1.35;;
25780;SDS011;13626;48.128;11.628;2023-12-28T07:53:21;2.45;;;1.40;;
25780;SDS011;13626;48.128;11.628;2023-12-28T07:55:49;2.42;;;1.48;;
25780;SDS011;13626;48.128;11.628;2023-12-28T07:58:21;2.47;;;1.05;;
25780;SDS011;13626;48.128;11.628;2023-12-28T08:00:54;2.17;;;1.33;;
25780;SDS011;13626;48.128;11.628;2023-12-28T08:03:26;1.88;;;1.35;;
25780;SDS011;13626;48.128;11.628;2023-12-28T08:05:53;2.88;;;1.42;;
25780;SDS011;13626;48.128;11.628;2023-12-28T08:08:22;7.45;;;1.50;;
25780;SDS011;13626;48.128;11.628;2023-12-28T08:10:49;4.07;;;1.50;;
25780;SDS011;13626;48.128;11.628;2023-12-28T08:13:17;3.97;;;1.42;;
25780;SDS011;13626;48.128;11.628;2023-12-28T08:15:47;1.65;;;1.25;;
25780;SDS011;13626;48.128;11.628;2023-12-28T08:18:15;2.42;;;1.40;;
25780;SDS011;13626;48.128;11.628;2023-12-28T08:20:42;2.80;;;1.42;;
25780;SDS011;13626;48.128;11.628;2023-12-28T08:23:10;2.25;;;1.27;;
25780;SDS011;13626;48.128;11.628;2023-12-28T08:25:43;2.30;;;1.27;;
25780;SDS011;13626;48.128;11.628;2023-12-28T08:28:11;1.83;;;1.38;;
25780;SDS011;13626;48.128;11.628;2023-12-28T08:30:39;2.28;;;1.27;;
25780;SDS011;13626;48.128;11.628;2023-12-28T08:33:06;2.38;;;1.65;;
25780;SDS011;13626;48.128;11.628;2023-12-28T08:35:34;3.40;;;1.60;;
25780;SDS011;13626;48.128;11.628;2023-12-28T08:38:01;3.40;;;1.50;;
25780;SDS011;13626;48.128;11.628;2023-12-28T08:40:30;3.83;;;1.90;;
25780;SDS011;13626;48.128;11.628;2023-12-28T08:42:57;1.52;;;1.40;;
25780;SDS011;13626;48.128;11.628;2023-12-28T08:45:24;2.17;;;1.38;;
25780;SDS011;13626;48.128;11.628;2023-12-28T08:47:52;4.13;;;1.33;;
25780;SDS011;13626;48.128;11.628;2023-12-28T08:50:19;2.95;;;1.48;;
25780;SDS011;13626;48.128;11.628;2023-12-28T08:52:47;3.63;;;1.60;;
25780;SDS011;13626;48.128;11.628;2023-12-28T08:55:14;2.42;;;1.60;;
25780;SDS011;13626;48.128;11.628;2023-12-28T08:57:41;2.42;;;1.40;;
25780;SDS011;13626;48.128;11.628;2023-12-28T09:00:09;3.45;;;1.23;;
25780;SDS011;13626;48.128;11.628;2023-12-28T09:02:37;2.58;;;1.50;;
25780;SDS011;13626;48.128;11.628;2023-12-28T09:05:05;3.10;;;1.27;;
25780;SDS011;13626;48.128;11.628;2023-12-28T09:07:32;2.90;;;1.20;;
25780;SDS011;13626;48.128;11.628;2023-12-28T09:10:02;2.70;;;1.38;;
25780;SDS011;13626;48.128;11.628;2023-12-28T09:12:30;2.38;;;1.40;;
25780;SDS011;13626;48.128;11.628;2023-12-28T09:14:57;2.25;;;1.52;;
25780;SDS011;13626;48.128;11.628;2023-12-28T09:17:25;1.80;;;1.20;;
25780;SDS011;13626;48.128;11.628;2023-12-28T09:19:53;1.92;;;1.52;;
25780;SDS011;13626;48.128;11.628;2023-12-28T09:22:20;2.53;;;1.65;;
25780;SDS011;13626;48.128;11.628;2023-12-28T09:24:47;1.52;;;1.35;;
25780;SDS011;13626;48.128;11.628;2023-12-28T09:27:15;1.25;;;1.10;;
25780;SDS011;13626;48.128;11.628;2023-12-28T09:29:42;4.03;;;1.10;;
25780;SDS011;13626;48.128;11.628;2023-12-28T09:32:10;1.73;;;1.02;;
25780;SDS011;13626;48.128;11.628;2023-12-28T09:34:37;1.73;;;1.05;;
25780;SDS011;13626;48.128;11.628;2023-12-28T09:37:04;1.33;;;1.00;;
25780;SDS011;13626;48.128;11.628;2023-12-28T09:39:32;2.10;;;1.00;;
25780;SDS011;13626;48.128;11.628;2023-12-28T09:42:00;1.05;;;0.90;;
25780;SDS011;13626;48.128;11.628;2023-12-28T09:44:28;3.35;;;0.90;;
25780;SDS011;13626;48.128;11.628;2023-12-28T09:46:57;1.42;;;0.90;;
25780;SDS011;13626;48.128;11.628;2023-12-28T09:49:26;1.48;;;1.30;;
25780;SDS011;13626;48.128;11.628;2023-12-28T09:51:56;1.33;;;1.13;;
25780;SDS011;13626;48.128;11.628;2023-12-28T09:54:25;1.42;;;1.23;;
25780;SDS011;13626;48.128;11.628;2023-12-28T09:56:52;0.93;;;0.93;;
25780;SDS011;13626;48.128;11.628;2023-12-28T09:59:20;2.92;;;1.10;;
25780;SDS011;13626;48.128;11.628;2023-12-28T10:01:47;0.85;;;0.73;;
25780;SDS011;13626;48.128;11.628;2023-12-28T10:04:15;2.10;;;0.80;;
25780;SDS011;13626;48.128;11.628;2023-12-28T10:06:43;1.27;;;0.98;;
25780;SDS011;13626;48.128;11.628;2023-12-28T10:09:10;0.90;;;0.75;;
25780;SDS011;13626;48.128;11.628;2023-12-28T10:11:38;3.05;;;0.88;;
25780;SDS011;13626;48.128;11.628;2023-12-28T10:14:05;1.00;;;0.80;;
25780;SDS011;13626;48.128;11.628;2023-12-28T10:16:34;1.50;;;1.05;;
25780;SDS011;13626;48.128;11.628;2023-12-28T10:19:01;0.93;;;0.88;;
25780;SDS011;13626;48.128;11.628;2023-12-28T10:21:30;1.10;;;1.00;;
25780;SDS011;13626;48.128;11.628;2023-12-28T10:23:58;1.52;;;0.90;;
25780;SDS011;13626;48.128;11.628;2023-12-28T10:26:26;3.33;;;1.05;;
25780;SDS011;13626;48.128;11.628;2023-12-28T10:29:00;1.40;;;1.10;;
25780;SDS011;13626;48.128;11.628;2023-12-28T10:34:00;2.92;;;1.13;;
25780;SDS011;13626;48.128;11.628;2023-12-28T10:36:30;1.00;;;0.90;;
25780;SDS011;13626;48.128;11.628;2023-12-28T10:38:58;1.10;;;0.85;;
25780;SDS011;13626;48.128;11.628;2023-12-28T10:41:27;1.67;;;0.80;;
25780;SDS011;13626;48.128;11.628;2023-12-28T10:46:27;1.60;;;1.20;;
25780;SDS011;13626;48.128;11.628;2023-12-28T10:49:09;1.58;;;0.90;;
25780;SDS011;13626;48.128;11.628;2023-12-28T10:51:40;2.45;;;1.00;;
25780;SDS011;13626;48.128;11.628;2023-12-28T10:56:49;1.13;;;0.70;;
25780;SDS011;13626;48.128;11.628;2023-12-28T10:59:24;1.73;;;0.98;;
25780;SDS011;13626;48.128;11.628;2023-12-28T11:01:55;1.60;;;1.02;;
25780;SDS011;13626;48.128;11.628;2023-12-28T11:04:31;1.52;;;1.10;;
25780;SDS011;13626;48.128;11.628;2023-12-28T11:09:26;1.85;;;1.20;;
25780;SDS011;13626;48.128;11.628;2023-12-28T11:11:53;3.78;;;1.13;;
25780;SDS011;13626;48.128;11.628;2023-12-28T11:14:22;2.72;;;1.10;;
25780;SDS011;13626;48.128;11.628;2023-12-28T11:16:50;2.78;;;1.27;;
25780;SDS011;13626;48.128;11.628;2023-12-28T11:19:17;3.50;;;1.25;;
25780;SDS011;13626;48.128;11.628;2023-12-28T11:21:45;2.78;;;1.52;;
25780;SDS011;13626;48.128;11.628;2023-12-28T11:24:12;1.90;;;1.38;;
25780;SDS011;13626;48.128;11.628;2023-12-28T11:26:40;4.07;;;1.45;;
25780;SDS011;13626;48.128;11.628;2023-12-28T11:29:07;1.10;;;1.00;;
25780;SDS011;13626;48.128;11.628;2023-12-28T11:31:34;1.17;;;0.98;;
25780;SDS011;13626;48.128;11.628;2023-12-28T11:34:05;1.48;;;1.20;;
25780;SDS011;13626;48.128;11.628;2023-12-28T11:36:43;2.70;;;1.00;;
25780;SDS011;13626;48.128;11.628;2023-12-28T11:39:12;3.97;;;1.40;;
25780;SDS011;13626;48.128;11.628;2023-12-28T11:41:39;1.45;;;1.17;;
25780;SDS011;13626;48.128;11.628;2023-12-28T11:44:09;2.90;;;1.40;;
25780;SDS011;13626;48.128;11.628;2023-12-28T11:46:38;1.80;;;1.08;;
25780;SDS011;13626;48.128;11.628;2023-12-28T11:49:08;2.22;;;1.05;;
25780;SDS011;13626;48.128;11.628;2023-12-28T11:51:37;1.25;;;1.08;;
25780;SDS011;13626;48.128;11.628;2023-12-28T11:54:05;3.22;;;1.13;;
25780;SDS011;13626;48.128;11.628;2023-12-28T11:56:34;0.98;;;0.80;;
25780;SDS011;13626;48.128;11.628;2023-12-28T11:59:01;1.58;;;1.05;;
25780;SDS011;13626;48.128;11.628;2023-12-28T12:01:28;2.25;;;1.20;;
25780;SDS011;13626;48.128;11.628;2023-12-28T12:03:56;2.33;;;1.02;;
25780;SDS011;13626;48.128;11.628;2023-12-28T12:06:24;1.23;;;1.10;;
25780;SDS011;13626;48.128;11.628;2023-12-28T12:08:52;2.83;;;1.20;;
25780;SDS011;13626;48.128;11.628;2023-12-28T12:11:19;1.20;;;1.00;;
25780;SDS011;13626;48.128;11.628;2023-12-28T12:13:49;3.15;;;1.10;;
25780;SDS011;13626;48.128;11.628;2023-12-28T12:16:18;3.83;;;1.08;;
25780;SDS011;13626;48.128;11.628;2023-12-28T12:18:46;1.77;;;1.50;;
25780;SDS011;13626;48.128;11.628;2023-12-28T12:21:13;2.42;;;0.90;;
25780;SDS011;13626;48.128;11.628;2023-12-28T12:23:41;2.50;;;1.35;;
25780;SDS011;13626;48.128;11.628;2023-12-28T12:26:09;1.38;;;1.23;;
25780;SDS011;13626;48.128;11.628;2023-12-28T12:28:37;3.17;;;1.52;;
25780;SDS011;13626;48.128;11.628;2023-12-28T12:31:07;3.17;;;1.25;;
25780;SDS011;13626;48.128;11.628;2023-12-28T12:33:36;1.67;;;1.10;;
25780;SDS011;13626;48.128;11.628;2023-12-28T12:36:05;2.95;;;1.30;;
25780;SDS011;13626;48.128;11.628;2023-12-28T12:38:33;1.98;;;1.17;;
25780;SDS011;13626;48.128;11.628;2023-12-28T12:41:00;1.63;;;1.10;;
25780;SDS011;13626;48.128;11.628;2023-12-28T12:43:28;5.47;;;1.10;;
25780;SDS011;13626;48.128;11.628;2023-12-28T12:45:55;1.02;;;0.93;;
25780;SDS011;13626;48.128;11.628;2023-12-28T12:48:26;1.05;;;0.93;;
25780;SDS011;13626;48.128;11.628;2023-12-28T12:50:56;1.00;;;0.90;;
25780;SDS011;13626;48.128;11.628;2023-12-28T12:53:23;1.73;;;1.10;;
25780;SDS011;13626;48.128;11.628;2023-12-28T12:55:53;1.35;;;1.13;;
25780;SDS011;13626;48.128;11.628;2023-12-28T12:58:21;1.60;;;1.20;;
25780;SDS011;13626;48.128;11.628;2023-12-28T13:00:50;2.05;;;1.08;;
25780;SDS011;13626;48.128;11.628;2023-12-28T13:03:19;1.10;;;1.00;;
25780;SDS011;13626;48.128;11.628;2023-12-28T13:05:47;1.30;;;0.88;;
25780;SDS011;13626;48.128;11.628;2023-12-28T13:08:14;2.33;;;1.08;;
25780;SDS011;13626;48.128;11.628;2023-12-28T13:10:42;2.75;;;1.10;;
25780;SDS011;13626;48.128;11.628;2023-12-28T13:13:09;1.83;;;1.08;;
25780;SDS011;13626;48.128;11.628;2023-12-28T13:15:36;2.28;;;1.05;;
25780;SDS011;13626;48.128;11.628;2023-12-28T13:18:04;2.38;;;1.40;;
25780;SDS011;13626;48.128;11.628;2023-12-28T13:20:31;1.90;;;1.33;;
25780;SDS011;13626;48.128;11.628;2023-12-28T13:22:59;3.63;;;1.40;;
25780;SDS011;13626;48.128;11.628;2023-12-28T13:25:33;2.23;;;1.37;;
25780;SDS011;13626;48.128;11.628;2023-12-28T13:28:02;1.60;;;1.23;;
25780;SDS011;13626;48.128;11.628;2023-12-28T13:30:32;1.48;;;1.38;;
25780;SDS011;13626;48.128;11.628;2023-12-28T13:33:00;2.33;;;1.08;;
25780;SDS011;13626;48.128;11.628;2023-12-28T13:35:29;3.03;;;1.27;;
25780;SDS011;13626;48.128;11.628;2023-12-28T13:38:00;1.75;;;1.23;;
25780;SDS011;13626;48.128;11.628;2023-12-28T13:40:34;3.00;;;1.60;;
25780;SDS011;13626;48.128;11.628;2023-12-28T13:43:03;4.32;;;1.67;;
25780;SDS011;13626;48.128;11.628;2023-12-28T13:45:30;3.25;;;1.65;;
25780;SDS011;13626;48.128;11.628;2023-12-28T13:47:57;1.90;;;1.30;;
25780;SDS011;13626;48.128;11.628;2023-12-28T13:50:25;3.17;;;1.10;;
25780;SDS011;13626;48.128;11.628;2023-12-28T13:52:52;2.38;;;1.17;;
25780;SDS011;13626;48.128;11.628;2023-12-28T13:55:20;2.45;;;1.10;;
25780;SDS011;13626;48.128;11.628;2023-12-28T13:57:47;1.40;;;0.90;;
25780;SDS011;13626;48.128;11.628;2023-12-28T14:00:14;3.92;;;1.48;;
25780;SDS011;13626;48.128;11.628;2023-12-28T14:02:42;1.80;;;1.33;;
25780;SDS011;13626;48.128;11.628;2023-12-28T14:05:10;2.15;;;1.27;;
25780;SDS011;13626;48.128;11.628;2023-12-28T14:07:38;3.58;;;1.77;;
25780;SDS011;13626;48.128;11.628;2023-12-28T14:10:06;3.00;;;1.30;;
25780;SDS011;13626;48.128;11.628;2023-12-28T14:12:33;2.83;;;1.27;;
25780;SDS011;13626;48.128;11.628;2023-12-28T14:15:00;2.40;;;1.10;;
25780;SDS011;13626;48.128;11.628;2023-12-28T14:17:28;2.35;;;1.35;;
25780;SDS011;13626;48.128;11.628;2023-12-28T14:19:57;3.38;;;1.10;;
25780;SDS011;13626;48.128;11.628;2023-12-28T14:22:24;3.85;;;1.20;;
25780;SDS011;13626;48.128;11.628;2023-12-28T14:24:52;2.15;;;1.38;;
25780;SDS011;13626;48.128;11.628;2023-12-28T14:27:20;1.67;;;1.15;;
25780;SDS011;13626;48.128;11.628;2023-12-28T14:29:48;1.38;;;1.00;;
25780;SDS011;13626;48.128;11.628;2023-12-28T14:32:17;3.20;;;1.48;;
25780;SDS011;13626;48.128;11.628;2023-12-28T14:34:44;6.82;;;3.83;;
25780;SDS011;13626;48.128;11.628;2023-12-28T14:37:12;2.22;;;1.90;;
25780;SDS011;13626;48.128;11.628;2023-12-28T14:39:40;3.85;;;1.70;;
25780;SDS011;13626;48.128;11.628;2023-12-28T14:42:10;2.38;;;1.55;;
25780;SDS011;13626;48.128;11.628;2023-12-28T14:44:40;1.63;;;1.25;;
25780;SDS011;13626;48.128;11.628;2023-12-28T14:47:07;2.85;;;1.23;;
25780;SDS011;13626;48.128;11.628;2023-12-28T14:49:36;1.75;;;1.40;;
25780;SDS011;13626;48.128;11.628;2023-12-28T14:52:04;2.13;;;1.23;;
25780;SDS011;13626;48.128;11.628;2023-12-28T14:54:31;2.00;;;1.52;;